Time;durP1;ratioP1;P1;durP2;ratioP2;P2;SDS_P1;SDS_P2;PMS_P1;PMS_P2;Temp;Humidity;BMP_temperature;BMP_pressure;BME280_temperature;BME280_humidity;BME280_pressure;Samples;Min_cycle;Max_cycle;Signal;HPM_P1;HPM_P2
2023/04/04 00:00:25;;;;;;;2.00;1.40;;;2.80;98.00;;;;;;5051626;28;20832;-69
2023/04/04 00:02:52;;;;;;;1.83;1.63;;;2.60;98.00;;;;;;5051414;28;20735;-68
2023/04/04 00:05:19;;;;;;;1.77;1.60;;;2.60;98.00;;;;;;5051401;28;20489;-69
2023/04/04 00:07:47;;;;;;;1.20;1.10;;;2.50;98.00;;;;;;5052454;28;20463;-68
2023/04/04 00:10:14;;;;;;;2.40;1.80;;;2.60;98.00;;;;;;5052395;28;20887;-68
2023/04/04 00:12:43;;;;;;;1.30;1.20;;;2.50;98.00;;;;;;5052234;28;20447;-69
2023/04/04 00:15:11;;;;;;;1.83;1.40;;;2.60;98.00;;;;;;5051433;28;20545;-69
2023/04/04 00:17:38;;;;;;;1.60;1.20;;;2.60;98.00;;;;;;5051298;28;20549;-68
2023/04/04 00:20:06;;;;;;;1.57;1.53;;;2.50;98.00;;;;;;5051418;28;20508;-69
2023/04/04 00:22:33;;;;;;;1.50;1.20;;;2.50;98.00;;;;;;5050266;28;20932;-69
2023/04/04 00:25:00;;;;;;;1.73;1.33;;;2.50;98.00;;;;;;5050923;28;20497;-69
2023/04/04 00:27:27;;;;;;;1.20;1.20;;;2.50;98.00;;;;;;5051432;28;20449;-68
2023/04/04 00:29:56;;;;;;;2.13;1.87;;;2.50;98.00;;;;;;5051351;28;20458;-68
2023/04/04 00:32:23;;;;;;;2.23;1.57;;;2.50;98.00;;;;;;5051095;28;20540;-68
2023/04/04 00:34:52;;;;;;;1.43;1.23;;;2.50;98.00;;;;;;5051116;28;20458;-68
2023/04/04 00:37:20;;;;;;;1.50;1.30;;;2.60;98.00;;;;;;5051400;28;20550;-69
2023/04/04 00:39:48;;;;;;;2.60;1.33;;;2.70;98.00;;;;;;5051265;28;20480;-68
2023/04/04 00:42:16;;;;;;;1.77;1.40;;;2.60;98.00;;;;;;5051508;28;20469;-68
2023/04/04 00:44:43;;;;;;;3.40;2.50;;;2.60;98.00;;;;;;5054862;28;20632;-68
2023/04/04 00:47:12;;;;;;;1.77;1.50;;;2.50;98.00;;;;;;5055301;28;20516;-68
2023/04/04 00:49:39;;;;;;;2.70;1.73;;;2.20;98.00;;;;;;5055107;28;20937;-69
2023/04/04 00:52:07;;;;;;;1.67;1.40;;;2.10;98.00;;;;;;5055010;28;20456;-68
2023/04/04 00:54:35;;;;;;;1.40;1.33;;;2.10;98.00;;;;;;5054975;28;20456;-68
2023/04/04 00:57:02;;;;;;;3.27;1.60;;;2.00;98.00;;;;;;5055134;28;20870;-68
2023/04/04 00:59:29;;;;;;;3.83;1.60;;;2.00;98.00;;;;;;5054964;28;20450;-68
2023/04/04 01:01:56;;;;;;;2.50;1.57;;;1.90;98.00;;;;;;5053701;28;20998;-68
2023/04/04 01:04:25;;;;;;;2.17;1.57;;;1.80;98.00;;;;;;5054753;28;20938;-68
2023/04/04 01:06:52;;;;;;;1.73;1.67;;;1.70;98.00;;;;;;5054639;28;20450;-69
2023/04/04 01:09:19;;;;;;;1.37;1.30;;;1.70;98.00;;;;;;5054753;28;20449;-68
2023/04/04 01:11:48;;;;;;;1.73;1.43;;;1.80;98.00;;;;;;5054819;28;20461;-69
2023/04/04 01:14:21;;;;;;;2.03;1.30;;;1.80;98.00;;;;;;5054672;28;20948;-68
2023/04/04 01:16:49;;;;;;;2.27;1.43;;;1.90;98.00;;;;;;5054678;28;20457;-69
2023/04/04 01:19:27;;;;;;;1.97;1.50;;;1.90;98.00;;;;;;5055131;28;20459;-68
2023/04/04 01:21:59;;;;;;;1.50;1.33;;;1.90;98.00;;;;;;5055104;28;20515;-68
2023/04/04 01:24:32;;;;;;;3.00;1.60;;;1.90;98.00;;;;;;5053232;28;20984;-69
2023/04/04 01:27:01;;;;;;;2.00;1.40;;;1.80;98.00;;;;;;5054500;28;20461;-69
2023/04/04 01:29:29;;;;;;;2.87;2.20;;;1.80;98.00;;;;;;5053124;28;20450;-68
2023/04/04 01:32:00;;;;;;;2.83;1.77;;;1.70;98.00;;;;;;5054288;28;20465;-68
2023/04/04 01:34:36;;;;;;;3.33;1.80;;;1.80;98.00;;;;;;5054406;28;20933;-69
2023/04/04 01:37:08;;;;;;;1.47;1.40;;;1.70;98.00;;;;;;5054581;28;20515;-69
2023/04/04 01:39:40;;;;;;;1.80;1.50;;;1.70;98.00;;;;;;5054615;28;20458;-69
2023/04/04 01:42:09;;;;;;;1.80;1.50;;;1.70;98.00;;;;;;5054168;28;20540;-69
2023/04/04 01:44:37;;;;;;;1.80;1.40;;;1.80;98.00;;;;;;5053949;28;20485;-69
2023/04/04 01:47:07;;;;;;;2.10;1.40;;;1.80;98.00;;;;;;5054877;28;20489;-69
2023/04/04 01:49:37;;;;;;;3.00;1.90;;;1.70;98.00;;;;;;5054577;28;20453;-69
2023/04/04 01:52:06;;;;;;;2.07;1.67;;;1.80;98.00;;;;;;5054941;28;20478;-69
2023/04/04 01:54:34;;;;;;;1.63;1.53;;;1.70;98.00;;;;;;5053914;28;20458;-69
2023/04/04 01:57:01;;;;;;;1.97;1.30;;;1.60;98.00;;;;;;5054358;28;20515;-68
2023/04/04 01:59:30;;;;;;;1.70;1.53;;;1.50;98.00;;;;;;5054770;28;20454;-69
2023/04/04 02:01:57;;;;;;;2.60;1.50;;;1.30;98.00;;;;;;5055052;28;20795;-69
2023/04/04 02:04:26;;;;;;;1.30;1.30;;;1.30;98.00;;;;;;5053518;28;20645;-69
2023/04/04 02:06:55;;;;;;;1.53;1.23;;;1.30;98.00;;;;;;5053890;28;20469;-69
2023/04/04 02:09:22;;;;;;;2.80;1.60;;;1.20;98.00;;;;;;5052673;28;20449;-69
2023/04/04 02:11:50;;;;;;;1.40;1.27;;;1.10;98.00;;;;;;5053593;28;20504;-69
2023/04/04 02:14:17;;;;;;;1.30;1.20;;;1.10;98.00;;;;;;5053534;28;20457;-69
2023/04/04 02:16:45;;;;;;;3.37;1.53;;;1.00;98.00;;;;;;5053468;28;20450;-70
2023/04/04 02:19:12;;;;;;;1.70;1.60;;;1.00;98.00;;;;;;5053425;28;20552;-69
2023/04/04 02:21:39;;;;;;;1.73;1.43;;;0.90;98.00;;;;;;5053264;28;20516;-69
2023/04/04 02:24:07;;;;;;;3.97;1.57;;;0.90;98.00;;;;;;5053265;28;20473;-69
2023/04/04 02:26:34;;;;;;;2.03;1.70;;;0.90;98.00;;;;;;5053202;28;20988;-68
2023/04/04 02:29:05;;;;;;;1.83;1.73;;;0.90;98.00;;;;;;5053603;28;20511;-68
2023/04/04 02:31:32;;;;;;;1.30;1.30;;;0.80;98.00;;;;;;5053243;28;20463;-69
2023/04/04 02:34:01;;;;;;;2.43;1.43;;;0.80;98.00;;;;;;5053286;28;20492;-69
2023/04/04 02:36:28;;;;;;;2.57;1.80;;;0.70;98.00;;;;;;5053430;28;20469;-69
2023/04/04 02:38:56;;;;;;;1.97;1.60;;;0.80;98.00;;;;;;5053426;28;20536;-69
2023/04/04 02:41:23;;;;;;;1.63;1.53;;;0.70;98.00;;;;;;5053323;28;21019;-68
2023/04/04 02:43:50;;;;;;;1.80;1.73;;;0.60;98.00;;;;;;5053209;28;20516;-69
2023/04/04 02:46:17;;;;;;;1.53;1.43;;;0.60;98.00;;;;;;5051894;28;20493;-68
2023/04/04 02:48:45;;;;;;;2.33;1.77;;;0.60;98.00;;;;;;5051607;28;20458;-69
2023/04/04 02:51:13;;;;;;;1.87;1.50;;;0.50;98.00;;;;;;5052938;28;20473;-69
2023/04/04 02:53:40;;;;;;;2.37;1.60;;;0.40;98.00;;;;;;5052960;28;20457;-69
2023/04/04 02:56:08;;;;;;;1.33;1.33;;;0.40;98.00;;;;;;5051634;28;20454;-69
2023/04/04 02:58:35;;;;;;;2.30;1.63;;;0.50;98.00;;;;;;5052744;28;20457;-69
2023/04/04 03:01:02;;;;;;;1.77;1.63;;;0.50;98.00;;;;;;5052791;28;20458;-69
2023/04/04 03:03:31;;;;;;;1.77;1.47;;;0.50;98.00;;;;;;5052805;28;20511;-69
2023/04/04 03:05:59;;;;;;;1.80;1.77;;;0.40;98.00;;;;;;5051468;28;20579;-69
2023/04/04 03:08:28;;;;;;;3.00;2.00;;;0.50;98.00;;;;;;5051318;28;20489;-69
2023/04/04 03:10:55;;;;;;;1.70;1.70;;;0.40;98.00;;;;;;5052463;28;20496;-69
2023/04/04 03:13:22;;;;;;;1.30;1.20;;;0.50;98.00;;;;;;5052373;28;20461;-69
2023/04/04 03:15:51;;;;;;;1.73;1.63;;;0.40;98.00;;;;;;5052372;28;20497;-69
2023/04/04 03:18:18;;;;;;;2.13;1.30;;;0.40;98.00;;;;;;5052322;28;20515;-69
2023/04/04 03:20:45;;;;;;;2.70;1.53;;;0.40;98.00;;;;;;5052089;28;20510;-69
2023/04/04 03:23:12;;;;;;;1.83;1.60;;;0.30;98.00;;;;;;5052259;28;20453;-69
2023/04/04 03:25:41;;;;;;;5.37;2.57;;;0.30;98.00;;;;;;5051822;28;20481;-69
2023/04/04 03:28:09;;;;;;;3.40;1.93;;;0.40;98.00;;;;;;5050985;28;20468;-69
2023/04/04 03:30:37;;;;;;;2.13;1.77;;;0.40;98.00;;;;;;5052046;28;20464;-68
2023/04/04 03:33:07;;;;;;;2.27;1.50;;;0.30;98.00;;;;;;5052315;28;20960;-69
2023/04/04 03:35:38;;;;;;;3.43;1.50;;;0.30;98.00;;;;;;5052219;28;20491;-69
2023/04/04 03:38:05;;;;;;;2.23;1.60;;;0.30;98.00;;;;;;5052266;28;20528;-68
2023/04/04 03:40:32;;;;;;;4.30;1.43;;;0.40;98.00;;;;;;5051813;28;20457;-68
2023/04/04 03:43:01;;;;;;;2.17;1.83;;;0.50;98.00;;;;;;5050640;28;20466;-68
2023/04/04 03:45:28;;;;;;;2.90;2.00;;;0.50;98.00;;;;;;5050689;28;20509;-69
2023/04/04 03:47:56;;;;;;;1.77;1.40;;;0.60;98.00;;;;;;5051958;28;20471;-68
2023/04/04 03:50:23;;;;;;;1.30;1.20;;;0.50;98.00;;;;;;5051807;28;20465;-68
2023/04/04 03:52:50;;;;;;;4.40;2.00;;;0.40;98.00;;;;;;5051778;28;20457;-68
2023/04/04 03:55:18;;;;;;;3.00;2.20;;;0.30;98.00;;;;;;5051576;28;20823;-68
2023/04/04 03:57:45;;;;;;;2.40;1.97;;;0.40;98.00;;;;;;5051518;28;20497;-68
2023/04/04 04:00:15;;;;;;;2.57;1.70;;;0.40;98.00;;;;;;5051695;28;20457;-68
2023/04/04 04:02:42;;;;;;;3.20;1.90;;;0.20;98.00;;;;;;5051688;28;20876;-68
2023/04/04 04:05:10;;;;;;;1.97;1.87;;;0.20;98.00;;;;;;5051343;28;20461;-68
2023/04/04 04:07:37;;;;;;;1.40;1.30;;;0.20;98.00;;;;;;5051384;28;20941;-68
2023/04/04 04:10:05;;;;;;;2.40;1.53;;;0.30;98.00;;;;;;5051741;28;20469;-68
2023/04/04 04:12:32;;;;;;;1.67;1.60;;;0.30;98.00;;;;;;5051383;28;20454;-68
2023/04/04 04:15:00;;;;;;;2.67;2.00;;;0.40;98.00;;;;;;5051411;28;20465;-68
2023/04/04 04:17:28;;;;;;;2.43;1.80;;;0.30;98.00;;;;;;5051423;28;20857;-68
2023/04/04 04:19:55;;;;;;;2.03;1.60;;;0.20;98.00;;;;;;5051172;28;20465;-68
2023/04/04 04:22:23;;;;;;;3.20;1.80;;;0.20;98.00;;;;;;5051329;28;20635;-68
2023/04/04 04:24:50;;;;;;;2.33;1.70;;;0.10;98.00;;;;;;5051107;28;20465;-68
2023/04/04 04:27:17;;;;;;;2.40;1.83;;;0.10;98.00;;;;;;5051000;28;20474;-69
2023/04/04 04:29:44;;;;;;;2.23;1.30;;;0.00;98.00;;;;;;5051375;28;20453;-68
2023/04/04 04:32:16;;;;;;;1.43;1.40;;;-0.10;98.00;;;;;;5050418;28;20453;-69
2023/04/04 04:34:45;;;;;;;2.67;1.67;;;-0.10;98.00;;;;;;5051473;28;20476;-69
2023/04/04 04:37:12;;;;;;;3.77;1.63;;;0.10;98.00;;;;;;5050232;28;20511;-69
2023/04/04 04:39:40;;;;;;;1.97;1.80;;;0.20;98.00;;;;;;5051339;28;20545;-68
2023/04/04 04:42:07;;;;;;;1.77;1.40;;;0.30;98.00;;;;;;5051013;28;20457;-68
2023/04/04 04:44:34;;;;;;;1.73;1.47;;;0.30;98.00;;;;;;5050922;28;20955;-69
2023/04/04 04:47:03;;;;;;;2.10;1.80;;;0.40;98.00;;;;;;5050830;28;20486;-68
2023/04/04 04:49:30;;;;;;;3.83;2.27;;;0.40;98.00;;;;;;5049343;28;21037;-69
2023/04/04 04:51:59;;;;;;;3.30;2.10;;;0.40;98.00;;;;;;5051036;28;20510;-68
2023/04/04 04:54:26;;;;;;;2.10;2.00;;;0.40;98.00;;;;;;5050924;28;20497;-68
2023/04/04 04:56:53;;;;;;;2.00;1.70;;;0.40;98.00;;;;;;5051248;28;20481;-68
2023/04/04 04:59:21;;;;;;;1.70;1.60;;;0.40;98.00;;;;;;5051043;28;20464;-68
2023/04/04 05:01:48;;;;;;;1.60;1.40;;;0.30;98.00;;;;;;5050823;28;20464;-69
2023/04/04 05:04:16;;;;;;;1.50;1.40;;;0.30;98.00;;;;;;5050922;28;20446;-69
2023/04/04 05:06:45;;;;;;;1.63;1.50;;;0.20;98.00;;;;;;5050753;28;20988;-69
2023/04/04 05:09:13;;;;;;;1.80;1.53;;;0.20;98.00;;;;;;5050914;28;20948;-68
2023/04/04 05:11:41;;;;;;;3.03;1.37;;;0.30;98.00;;;;;;5050596;28;20507;-68
2023/04/04 05:14:08;;;;;;;6.43;1.70;;;0.30;98.00;;;;;;5050947;28;21039;-68
2023/04/04 05:16:36;;;;;;;2.90;1.80;;;0.20;98.00;;;;;;5050865;28;20810;-69
2023/04/04 05:19:03;;;;;;;3.87;1.87;;;0.20;98.00;;;;;;5050930;28;20465;-68
2023/04/04 05:21:33;;;;;;;1.80;1.70;;;0.20;98.00;;;;;;5050887;28;20488;-69
2023/04/04 05:24:00;;;;;;;1.57;1.20;;;0.20;98.00;;;;;;5049858;28;20452;-69
2023/04/04 05:26:29;;;;;;;1.43;1.40;;;0.20;98.00;;;;;;5050525;28;20492;-68
2023/04/04 05:28:58;;;;;;;1.30;1.10;;;0.30;98.00;;;;;;5051751;28;20466;-68
2023/04/04 05:31:25;;;;;;;1.40;1.30;;;0.30;98.00;;;;;;5054833;28;20457;-68
2023/04/04 05:33:52;;;;;;;2.77;2.63;;;0.30;98.00;;;;;;5054615;28;20878;-68
2023/04/04 05:36:19;;;;;;;2.77;2.27;;;0.30;98.00;;;;;;5054281;28;20446;-68
2023/04/04 05:38:46;;;;;;;6.80;3.30;;;0.40;98.00;;;;;;5054393;28;20469;-68
2023/04/04 05:41:14;;;;;;;2.90;2.10;;;0.50;98.00;;;;;;5054349;28;20591;-68
2023/04/04 05:43:43;;;;;;;2.10;1.67;;;0.70;98.00;;;;;;5054178;28;20534;-68
2023/04/04 05:46:10;;;;;;;4.03;2.27;;;0.70;98.00;;;;;;5053903;28;20490;-69
2023/04/04 05:48:37;;;;;;;2.37;1.80;;;0.70;98.00;;;;;;5054074;28;20867;-69
2023/04/04 05:51:04;;;;;;;1.73;1.57;;;0.80;98.00;;;;;;5054003;28;20457;-68
2023/04/04 05:53:33;;;;;;;3.00;1.57;;;0.90;98.00;;;;;;5054013;28;20453;-68
2023/04/04 05:56:01;;;;;;;3.50;1.97;;;1.00;98.00;;;;;;5053862;28;20466;-69
2023/04/04 05:58:28;;;;;;;4.20;3.10;;;1.00;98.00;;;;;;5053742;28;20450;-68
2023/04/04 06:00:56;;;;;;;2.27;1.87;;;1.00;98.00;;;;;;5052533;28;20458;-69
2023/04/04 06:03:23;;;;;;;3.33;1.70;;;1.00;98.00;;;;;;5053781;28;20465;-62
2023/04/04 06:05:52;;;;;;;5.47;2.63;;;1.00;98.00;;;;;;5053590;28;20905;-64
2023/04/04 06:08:19;;;;;;;2.30;1.70;;;1.10;98.00;;;;;;5053642;28;20489;-63
2023/04/04 06:10:46;;;;;;;4.20;2.47;;;1.10;98.00;;;;;;5054081;28;20470;-63
2023/04/04 06:13:13;;;;;;;1.87;1.70;;;1.20;98.00;;;;;;5054612;28;21010;-64
2023/04/04 06:15:40;;;;;;;2.13;2.00;;;1.10;98.00;;;;;;5053981;28;20469;-64
2023/04/04 06:18:08;;;;;;;2.57;2.23;;;1.00;98.00;;;;;;5054736;28;20465;-64
2023/04/04 06:20:36;;;;;;;3.30;1.60;;;1.00;98.00;;;;;;5054275;28;20460;-63
2023/04/04 06:23:04;;;;;;;1.67;1.60;;;0.90;98.00;;;;;;5054198;28;20457;-64
2023/04/04 06:25:31;;;;;;;2.70;1.30;;;1.00;98.00;;;;;;5054158;28;20465;-62
2023/04/04 06:27:59;;;;;;;1.80;1.70;;;1.00;98.00;;;;;;5052888;28;20996;-63
2023/04/04 06:30:26;;;;;;;2.80;1.80;;;1.10;98.00;;;;;;5053919;28;20556;-64
2023/04/04 06:32:53;;;;;;;2.50;1.43;;;1.10;98.00;;;;;;5053765;28;20465;-64
2023/04/04 06:35:22;;;;;;;2.13;1.67;;;1.20;98.00;;;;;;5053722;28;20462;-63
2023/04/04 06:37:55;;;;;;;2.43;1.90;;;1.20;98.00;;;;;;5053867;28;20963;-64
2023/04/04 06:40:22;;;;;;;1.87;1.80;;;1.20;98.00;;;;;;5053602;28;20544;-63
2023/04/04 06:42:50;;;;;;;11.20;2.23;;;1.30;98.00;;;;;;5053683;28;20888;-63
2023/04/04 06:45:18;;;;;;;1.30;1.30;;;1.30;98.00;;;;;;5052955;28;20465;-63
2023/04/04 06:47:45;;;;;;;2.30;1.80;;;1.30;98.00;;;;;;5052952;28;20539;-64
2023/04/04 06:50:13;;;;;;;1.80;1.43;;;1.40;98.00;;;;;;5053098;28;20449;-64
2023/04/04 06:52:42;;;;;;;2.10;1.90;;;1.40;98.00;;;;;;5053412;28;20534;-64
2023/04/04 06:55:10;;;;;;;2.40;1.93;;;1.50;98.00;;;;;;5053654;28;20484;-64
2023/04/04 06:57:38;;;;;;;2.60;1.40;;;1.70;98.00;;;;;;5053549;28;20477;-63
2023/04/04 07:00:06;;;;;;;2.30;1.73;;;1.70;98.00;;;;;;5053302;28;20489;-64
2023/04/04 07:02:33;;;;;;;2.87;2.00;;;1.70;98.00;;;;;;5053614;28;20450;-63
2023/04/04 07:05:00;;;;;;;2.33;2.00;;;1.70;98.00;;;;;;5053397;28;20813;-63
2023/04/04 07:07:28;;;;;;;1.50;1.50;;;1.80;98.00;;;;;;5053483;28;20485;-63
2023/04/04 07:09:57;;;;;;;1.70;1.50;;;1.90;98.00;;;;;;5053481;28;20460;-63
2023/04/04 07:12:24;;;;;;;1.90;1.90;;;1.90;98.00;;;;;;5053400;28;20499;-63
2023/04/04 07:14:51;;;;;;;1.80;1.70;;;2.10;98.00;;;;;;5051736;28;20457;-64
2023/04/04 07:17:18;;;;;;;1.67;1.50;;;2.10;98.00;;;;;;5053395;28;20465;-63
2023/04/04 07:19:45;;;;;;;2.20;1.73;;;2.20;98.00;;;;;;5053032;28;20465;-63
2023/04/04 07:22:13;;;;;;;2.90;1.77;;;2.40;98.00;;;;;;5052909;28;20476;-62
2023/04/04 07:24:41;;;;;;;2.47;1.70;;;2.60;98.00;;;;;;5051859;28;20501;-63
2023/04/04 07:27:10;;;;;;;1.77;1.43;;;2.70;98.00;;;;;;5051928;28;20516;-62
2023/04/04 07:29:38;;;;;;;1.70;1.50;;;2.90;98.00;;;;;;5052830;28;20507;-63
2023/04/04 07:32:05;;;;;;;1.83;1.60;;;2.90;98.00;;;;;;5052572;28;20458;-64
2023/04/04 07:34:33;;;;;;;3.43;1.80;;;3.00;98.00;;;;;;5052798;28;20464;-62
2023/04/04 07:37:00;;;;;;;2.03;1.27;;;2.90;98.00;;;;;;5052649;28;20469;-63
2023/04/04 07:39:27;;;;;;;1.93;1.20;;;3.00;98.00;;;;;;5052393;28;20462;-63
2023/04/04 07:41:54;;;;;;;2.57;1.93;;;3.20;98.00;;;;;;5052756;28;20511;-63
2023/04/04 07:44:23;;;;;;;1.70;1.60;;;3.20;98.00;;;;;;5052383;28;20465;-63
2023/04/04 07:46:52;;;;;;;2.50;1.70;;;3.40;98.00;;;;;;5052380;28;20487;-63
2023/04/04 07:49:19;;;;;;;3.40;2.00;;;3.60;98.00;;;;;;5052136;28;20450;-64
2023/04/04 07:51:47;;;;;;;1.93;1.40;;;3.80;98.00;;;;;;5051902;28;20467;-63
2023/04/04 07:54:15;;;;;;;2.03;1.60;;;3.90;98.00;;;;;;5052076;28;20449;-65
2023/04/04 07:56:43;;;;;;;1.80;1.70;;;4.00;98.00;;;;;;5052256;28;20484;-62
2023/04/04 07:59:11;;;;;;;2.60;1.83;;;4.10;98.00;;;;;;5050962;28;20475;-63
2023/04/04 08:01:39;;;;;;;4.60;1.97;;;4.20;98.00;;;;;;5052146;28;20462;-65
2023/04/04 08:04:06;;;;;;;2.53;1.60;;;4.30;98.00;;;;;;5052329;28;20457;-63
2023/04/04 08:06:35;;;;;;;1.63;1.60;;;;;;;;;;5051880;28;20492;-63
2023/04/04 08:09:03;;;;;;;2.53;1.73;;;4.30;98.00;;;;;;5052088;28;20553;-63
2023/04/04 08:11:32;;;;;;;1.93;1.70;;;4.40;98.00;;;;;;5052070;28;20468;-63
2023/04/04 08:14:00;;;;;;;4.03;2.03;;;4.50;97.40;;;;;;5052361;28;20517;-63
2023/04/04 08:16:27;;;;;;;3.13;2.20;;;4.60;97.70;;;;;;5051888;28;20506;-64
2023/04/04 08:18:55;;;;;;;2.40;1.73;;;4.70;97.10;;;;;;5052171;28;20474;-62
2023/04/04 08:21:22;;;;;;;2.53;1.83;;;4.80;96.40;;;;;;5052160;28;20459;-63
2023/04/04 08:23:49;;;;;;;2.57;1.70;;;4.90;95.90;;;;;;5051904;28;20455;-63
2023/04/04 08:26:17;;;;;;;2.47;2.30;;;5.10;95.60;;;;;;5051930;28;20519;-62
2023/04/04 08:28:44;;;;;;;3.20;1.93;;;5.20;96.10;;;;;;5050825;28;20466;-63
2023/04/04 08:31:11;;;;;;;3.40;2.30;;;5.30;95.60;;;;;;5051728;28;20459;-64
2023/04/04 08:33:39;;;;;;;2.13;1.80;;;5.40;95.20;;;;;;5049965;28;20939;-64
2023/04/04 08:36:10;;;;;;;1.70;1.63;;;5.50;94.90;;;;;;5051827;28;20543;-63
2023/04/04 08:38:37;;;;;;;2.33;1.60;;;5.50;94.10;;;;;;5033940;28;20460;-63
2023/04/04 08:41:07;;;;;;;3.33;1.70;;;5.70;94.90;;;;;;5051833;28;20461;-63
2023/04/04 08:43:36;;;;;;;3.20;1.80;;;5.90;93.90;;;;;;5050350;28;20821;-62
2023/04/04 08:46:07;;;;;;;3.83;1.90;;;6.10;94.10;;;;;;5051306;28;20461;-63
2023/04/04 08:48:37;;;;;;;3.57;2.00;;;6.30;94.00;;;;;;5051506;28;20537;-63
2023/04/04 08:51:05;;;;;;;2.00;1.80;;;6.20;91.10;;;;;;5050253;28;21009;-63
2023/04/04 08:53:36;;;;;;;3.47;2.03;;;6.30;92.70;;;;;;5050601;28;20861;-63
2023/04/04 08:56:03;;;;;;;10.80;2.03;;;6.30;92.10;;;;;;5051470;28;20463;-63
2023/04/04 08:58:30;;;;;;;3.30;1.97;;;6.50;92.30;;;;;;5051608;28;20465;-63
2023/04/04 09:00:59;;;;;;;3.83;1.80;;;6.60;92.30;;;;;;5051545;28;20454;-63
2023/04/04 09:03:31;;;;;;;2.37;1.90;;;6.70;90.80;;;;;;5051207;28;20451;-63
2023/04/04 09:05:59;;;;;;;3.73;2.23;;;6.70;88.70;;;;;;5055674;28;20528;-62
2023/04/04 09:08:28;;;;;;;2.27;1.67;;;6.80;89.30;;;;;;5055642;28;20541;-63
2023/04/04 09:11:02;;;;;;;3.43;1.97;;;7.00;90.70;;;;;;5055524;28;20458;-63
2023/04/04 09:13:29;;;;;;;3.93;2.40;;;7.20;89.80;;;;;;5055726;28;20499;-63
2023/04/04 09:15:57;;;;;;;2.80;1.80;;;7.30;89.80;;;;;;5054699;28;20452;-63
2023/04/04 09:18:24;;;;;;;2.80;2.00;;;7.40;89.80;;;;;;5055754;28;21073;-63
2023/04/04 09:20:52;;;;;;;3.70;2.00;;;7.60;89.90;;;;;;5055361;28;20459;-64
2023/04/04 09:23:22;;;;;;;3.80;2.30;;;7.60;88.70;;;;;;5055082;28;20500;-63
2023/04/04 09:25:52;;;;;;;3.60;2.00;;;7.70;89.20;;;;;;5055439;28;20465;-62
2023/04/04 09:28:22;;;;;;;4.60;2.40;;;7.80;88.40;;;;;;5054936;28;21032;-64
2023/04/04 09:30:49;;;;;;;2.30;1.60;;;8.00;89.70;;;;;;5053969;28;20454;-64
2023/04/04 09:33:18;;;;;;;5.33;2.60;;;8.10;87.80;;;;;;5054278;28;20950;-64
2023/04/04 09:35:46;;;;;;;4.33;2.27;;;8.20;86.50;;;;;;5054017;28;21085;-64
2023/04/04 09:38:15;;;;;;;3.20;2.40;;;8.20;88.20;;;;;;5062136;28;20552;-63
2023/04/04 09:40:42;;;;;;;3.93;2.10;;;8.30;88.00;;;;;;5061163;28;20547;-64
2023/04/04 09:43:12;;;;;;;3.03;2.10;;;8.50;87.40;;;;;;5054199;28;21042;-63
2023/04/04 09:45:44;;;;;;;4.13;2.10;;;8.70;87.00;;;;;;5053783;28;20475;-65
2023/04/04 09:48:13;;;;;;;4.00;1.83;;;8.80;85.30;;;;;;5053776;28;20499;-63
2023/04/04 09:50:46;;;;;;;3.13;1.93;;;8.90;86.70;;;;;;5054035;28;20937;-63
2023/04/04 09:53:17;;;;;;;2.43;1.80;;;8.80;83.30;;;;;;5053849;28;20460;-64
2023/04/04 09:55:50;;;;;;;3.57;2.20;;;8.80;83.40;;;;;;5053679;28;20987;-63
2023/04/04 09:58:20;;;;;;;3.87;2.47;;;8.80;85.50;;;;;;5053445;28;20456;-63
2023/04/04 10:00:49;;;;;;;2.90;1.73;;;9.00;85.80;;;;;;5053975;28;20457;-64
2023/04/04 10:03:17;;;;;;;3.83;1.80;;;9.10;84.70;;;;;;5053339;28;20931;-64
2023/04/04 10:05:45;;;;;;;4.50;2.37;;;9.20;83.70;;;;;;5053564;28;20983;-63
2023/04/04 10:08:18;;;;;;;2.93;2.00;;;9.30;83.70;;;;;;5053279;28;20531;-65
2023/04/04 10:10:49;;;;;;;2.43;1.97;;;9.40;83.80;;;;;;5053792;28;20460;-64
2023/04/04 10:13:24;;;;;;;3.57;2.23;;;9.50;81.90;;;;;;5053259;28;20568;-63
2023/04/04 10:15:53;;;;;;;6.27;2.33;;;9.60;81.80;;;;;;5053038;28;20491;-64
2023/04/04 10:18:25;;;;;;;4.30;2.43;;;9.70;80.40;;;;;;5053428;28;20457;-64
2023/04/04 10:20:55;;;;;;;3.07;2.23;;;9.90;81.80;;;;;;5053366;28;20495;-64
2023/04/04 10:23:25;;;;;;;3.30;1.87;;;10.00;81.10;;;;;;5053884;28;20948;-64
2023/04/04 10:25:52;;;;;;;3.77;2.10;;;10.00;81.10;;;;;;5053210;28;20494;-64
2023/04/04 10:28:21;;;;;;;4.07;2.23;;;10.00;81.90;;;;;;5053168;28;20528;-63
2023/04/04 10:30:55;;;;;;;3.20;2.00;;;10.10;81.80;;;;;;5052981;28;20520;-64
2023/04/04 10:33:31;;;;;;;2.83;2.10;;;10.20;81.50;;;;;;5053034;28;20966;-64
2023/04/04 10:36:02;;;;;;;6.10;2.80;;;10.30;81.20;;;;;;5053321;28;20466;-63
2023/04/04 10:38:35;;;;;;;5.73;2.60;;;10.30;80.80;;;;;;5053109;28;20540;-64
2023/04/04 10:41:06;;;;;;;2.27;1.77;;;10.20;80.90;;;;;;5052845;28;20544;-64
2023/04/04 10:43:35;;;;;;;3.13;2.30;;;10.30;81.60;;;;;;5052876;28;20451;-65
2023/04/04 10:46:11;;;;;;;4.70;2.30;;;10.40;81.30;;;;;;5052350;28;20490;-64
2023/04/04 10:48:41;;;;;;;5.37;2.40;;;10.50;79.50;;;;;;5052827;28;20488;-63
2023/04/04 10:51:10;;;;;;;3.47;2.27;;;10.80;80.00;;;;;;5052722;28;20883;-64
2023/04/04 10:53:40;;;;;;;3.00;2.23;;;11.00;80.50;;;;;;5052672;28;20668;-63
2023/04/04 10:56:08;;;;;;;3.87;2.23;;;11.10;78.80;;;;;;5051427;28;20482;-65
2023/04/04 10:58:39;;;;;;;3.43;2.60;;;11.10;78.90;;;;;;5052117;28;20450;-64
2023/04/04 11:01:08;;;;;;;3.53;2.03;;;11.20;79.30;;;;;;5052799;28;20976;-63
2023/04/04 11:04:08;;;;;;;2.33;1.93;;;11.20;79.30;;;;;;5052515;28;20529;-64
2023/04/04 11:07:10;;;;;;;3.97;2.13;;;11.30;78.40;;;;;;5052292;28;20537;-63
2023/04/04 11:09:53;;;;;;;2.43;1.97;;;11.30;78.60;;;;;;5052291;28;20473;-64
2023/04/04 11:12:28;;;;;;;4.20;2.40;;;11.50;78.20;;;;;;5052326;28;20565;-64
2023/04/04 11:14:57;;;;;;;3.30;2.30;;;11.80;77.80;;;;;;5052112;28;20529;-64
2023/04/04 11:17:49;;;;;;;3.00;2.30;;;11.90;76.50;;;;;;5052202;28;20935;-64
2023/04/04 11:20:21;;;;;;;3.93;2.23;;;12.10;76.20;;;;;;5051851;28;20475;-64
2023/04/04 11:23:02;;;;;;;3.67;2.13;;;12.20;76.00;;;;;;5052028;28;21039;-64
2023/04/04 11:25:36;;;;;;;3.50;2.27;;;12.30;75.20;;;;;;5051870;28;21031;-64
2023/04/04 11:28:14;;;;;;;3.83;2.03;;;12.40;76.40;;;;;;5051199;28;20482;-63
2023/04/04 11:30:50;;;;;;;4.30;2.40;;;12.60;75.00;;;;;;5052093;28;20943;-64
2023/04/04 11:33:27;;;;;;;2.60;2.20;;;12.70;75.30;;;;;;5051869;28;20548;-64
2023/04/04 11:36:04;;;;;;;2.67;2.37;;;12.90;74.80;;;;;;5051731;28;20454;-64
2023/04/04 11:38:33;;;;;;;4.70;2.70;;;13.20;73.60;;;;;;5051818;28;20549;-65
2023/04/04 11:41:01;;;;;;;8.40;2.63;;;13.40;73.10;;;;;;5051825;28;20458;-65
2023/04/04 11:43:28;;;;;;;4.70;2.50;;;13.60;71.70;;;;;;5051815;28;20458;-64
2023/04/04 11:46:07;;;;;;;3.87;2.30;;;13.60;71.60;;;;;;5050759;28;20515;-64
2023/04/04 11:48:36;;;;;;;2.50;2.07;;;13.80;74.90;;;;;;5051709;28;20495;-64
2023/04/04 11:51:03;;;;;;;3.13;2.20;;;13.80;70.70;;;;;;5051539;28;20531;-65
2023/04/04 11:53:33;;;;;;;3.10;2.30;;;13.70;71.90;;;;;;5051515;28;20461;-66
2023/04/04 11:56:00;;;;;;;3.90;2.33;;;13.70;72.40;;;;;;5051864;28;20483;-66
2023/04/04 11:58:28;;;;;;;4.27;2.60;;;14.00;72.20;;;;;;5051646;28;20454;-64
2023/04/04 12:00:55;;;;;;;2.50;2.03;;;14.00;72.10;;;;;;5051741;28;20469;-64
2023/04/04 12:03:24;;;;;;;2.90;2.00;;;14.10;70.70;;;;;;5050362;28;20451;-64
2023/04/04 12:05:51;;;;;;;3.67;2.30;;;14.10;71.30;;;;;;5051734;28;20469;-65
2023/04/04 12:08:18;;;;;;;3.77;2.20;;;14.10;70.60;;;;;;5051297;28;20483;-65
2023/04/04 12:10:47;;;;;;;7.90;2.90;;;14.10;70.70;;;;;;5051204;28;20455;-64
2023/04/04 12:13:15;;;;;;;3.07;2.07;;;14.20;71.50;;;;;;5038816;28;20552;-63
2023/04/04 12:15:43;;;;;;;3.50;2.40;;;14.30;69.60;;;;;;5031365;28;20455;-65
2023/04/04 12:18:21;;;;;;;5.10;2.53;;;14.50;69.30;;;;;;5031735;28;20485;-64
2023/04/04 12:20:50;;;;;;;4.40;2.40;;;14.40;68.60;;;;;;5030825;28;20489;-64
2023/04/04 12:23:18;;;;;;;3.50;2.30;;;14.50;70.40;;;;;;5030761;28;20459;-65
2023/04/04 12:25:52;;;;;;;2.93;2.00;;;14.60;69.30;;;;;;5031413;28;20511;-64
2023/04/04 12:28:26;;;;;;;3.17;2.07;;;14.80;71.00;;;;;;5031541;28;20879;-65
2023/04/04 12:30:53;;;;;;;2.20;1.80;;;14.90;69.70;;;;;;5032403;28;20456;-65
2023/04/04 12:33:21;;;;;;;3.10;2.10;;;15.10;69.30;;;;;;5031716;28;20470;-64
2023/04/04 12:35:56;;;;;;;3.63;2.37;;;15.20;69.00;;;;;;5032247;28;20461;-64
2023/04/04 12:38:23;;;;;;;3.03;2.10;;;15.00;67.90;;;;;;5031919;28;20931;-64
2023/04/04 12:40:53;;;;;;;3.20;2.13;;;15.20;67.60;;;;;;5031699;28;20520;-64
2023/04/04 12:43:20;;;;;;;3.07;2.30;;;15.40;68.60;;;;;;5031675;28;20462;-64
2023/04/04 12:45:50;;;;;;;4.27;2.47;;;15.70;67.80;;;;;;5031239;28;20507;-64
2023/04/04 12:48:18;;;;;;;4.10;2.30;;;15.60;67.20;;;;;;5030103;28;20562;-64
2023/04/04 12:50:53;;;;;;;2.97;1.93;;;15.60;67.80;;;;;;5031539;28;20466;-65
2023/04/04 12:53:21;;;;;;;4.23;2.20;;;15.70;68.20;;;;;;5031632;28;20614;-63
2023/04/04 12:55:49;;;;;;;2.50;2.03;;;15.50;67.60;;;;;;5031205;28;20505;-64
2023/04/04 12:58:20;;;;;;;6.03;2.60;;;15.30;66.50;;;;;;5031448;28;20837;-63
2023/04/04 13:00:50;;;;;;;3.60;2.37;;;15.20;66.00;;;;;;5029998;28;21004;-64
2023/04/04 13:03:19;;;;;;;6.03;2.27;;;15.30;67.80;;;;;;5031386;28;20468;-64